Time;durP1;ratioP1;P1;durP2;ratioP2;P2;SDS_P1;SDS_P2;PMS_P1;PMS_P2;Temp;Humidity;BMP_temperature;BMP_pressure;BME280_temperature;BME280_humidity;BME280_pressure;Samples;Min_cycle;Max_cycle;Signal;HPM_P1;HPM_P2
2021/07/26 00:01:23;;;;;;;16.08;11.32;;;564.00;2432.00;;;;;;5075886;28;20021;-85
2021/07/26 00:03:48;;;;;;;13.57;10.45;;;563.80;2432.00;;;;;;5075532;28;20474;-84
2021/07/26 00:06:14;;;;;;;15.27;12.52;;;563.60;2432.00;;;;;;5075363;28;20039;-85
2021/07/26 00:08:41;;;;;;;12.05;10.02;;;563.60;2432.00;;;;;;5075444;28;20138;-85
2021/07/26 00:11:09;;;;;;;14.40;11.55;;;563.40;2432.00;;;;;;5075541;28;20051;-83
2021/07/26 00:13:36;;;;;;;14.07;11.13;;;563.30;2432.00;;;;;;5075144;28;20032;-85
2021/07/26 00:16:03;;;;;;;12.82;10.65;;;563.40;2432.00;;;;;;5075425;28;20031;-84
2021/07/26 00:18:29;;;;;;;13.57;11.10;;;563.40;2432.00;;;;;;5075379;28;20140;-85
2021/07/26 00:20:57;;;;;;;13.35;10.88;;;563.60;2432.00;;;;;;5074913;28;20135;-83
2021/07/26 00:23:23;;;;;;;13.70;10.85;;;563.50;2432.00;;;;;;5074974;28;20052;-86
2021/07/26 00:25:49;;;;;;;16.25;11.40;;;563.40;2432.00;;;;;;5074784;28;20028;-85
2021/07/26 00:28:15;;;;;;;16.73;12.20;;;563.40;2432.00;;;;;;5074592;28;20066;-85
2021/07/26 00:30:41;;;;;;;16.38;10.40;;;563.40;2432.00;;;;;;5074783;28;20028;-84
2021/07/26 00:36:24;;;;;;;13.55;10.98;;;563.60;2432.00;;;;;;5075566;28;20044;-83
2021/07/26 00:38:50;;;;;;;14.10;10.82;;;563.50;2432.00;;;;;;5074327;28;20061;-85
2021/07/26 00:41:17;;;;;;;13.52;11.55;;;563.50;2432.00;;;;;;5074856;28;20036;-84
2021/07/26 00:43:43;;;;;;;14.52;11.30;;;563.50;2432.00;;;;;;5074414;28;20031;-84
2021/07/26 00:46:09;;;;;;;15.30;11.00;;;563.30;2432.00;;;;;;5074121;28;20020;-84
2021/07/26 00:48:35;;;;;;;13.60;11.30;;;563.50;2432.00;;;;;;5075352;28;20104;-85
2021/07/26 00:51:02;;;;;;;13.02;11.35;;;563.20;2432.00;;;;;;5074347;28;20358;-86
2021/07/26 00:53:28;;;;;;;15.60;11.18;;;563.20;2432.00;;;;;;5074209;28;20024;-83
2021/07/26 00:55:55;;;;;;;18.38;11.82;;;538.40;2406.40;;;;;;5074757;28;20037;-83
2021/07/26 00:58:21;;;;;;;16.15;11.98;;;538.30;2406.40;;;;;;5074252;28;20024;-86
2021/07/26 01:00:47;;;;;;;15.50;12.07;;;537.90;2406.40;;;;;;5073775;28;20031;-84
2021/07/26 01:03:13;;;;;;;18.15;11.30;;;538.30;2406.40;;;;;;5073857;28;20025;-85
2021/07/26 01:05:39;;;;;;;15.52;12.43;;;538.30;2406.40;;;;;;5074219;28;20074;-84
2021/07/26 01:08:05;;;;;;;16.80;11.52;;;538.30;2406.40;;;;;;5073585;28;20020;-85
2021/07/26 01:10:31;;;;;;;17.95;11.13;;;538.40;2406.40;;;;;;5073852;28;20020;-84
2021/07/26 01:12:57;;;;;;;12.65;11.20;;;538.40;2406.40;;;;;;5074043;28;20547;-84
2021/07/26 01:15:23;;;;;;;15.18;10.95;;;538.30;2406.40;;;;;;5073634;28;20146;-84
2021/07/26 01:18:15;;;;;;;14.95;11.10;;;538.30;2406.40;;;;;;5107647;28;20481;-85
2021/07/26 01:20:41;;;;;;;14.63;11.65;;;538.40;2406.40;;;;;;5075096;28;20021;-83
2021/07/26 01:23:07;;;;;;;16.83;11.55;;;538.40;2406.40;;;;;;5073583;28;20036;-83
2021/07/26 01:25:37;;;;;;;14.45;10.88;;;538.30;2406.40;;;;;;5073705;28;20367;-85
2021/07/26 01:28:04;;;;;;;13.70;11.35;;;538.40;2406.40;;;;;;5073590;28;20024;-83
2021/07/26 01:30:31;;;;;;;18.60;12.02;;;538.50;2406.40;;;;;;5073430;28;20229;-85
2021/07/26 01:32:58;;;;;;;13.55;11.23;;;563.20;2432.00;;;;;;5075555;28;20086;-85
2021/07/26 01:35:24;;;;;;;15.98;11.05;;;563.80;2432.00;;;;;;5073537;28;20147;-86
2021/07/26 01:37:50;;;;;;;14.85;10.80;;;563.40;2432.00;;;;;;5073709;28;20478;-84
2021/07/26 01:40:16;;;;;;;14.75;11.70;;;563.50;2432.00;;;;;;5073499;28;20078;-85
2021/07/26 01:42:43;;;;;;;15.45;11.57;;;538.40;2406.40;;;;;;5073308;28;20067;-85
2021/07/26 01:45:10;;;;;;;16.52;12.05;;;538.40;2406.40;;;;;;5073156;28;20032;-86
2021/07/26 01:47:49;;;;;;;15.30;12.40;;;538.50;2406.40;;;;;;5073523;28;20017;-83
2021/07/26 01:50:19;;;;;;;20.27;11.90;;;538.40;2406.40;;;;;;5073458;28;20029;-84
2021/07/26 01:52:46;;;;;;;13.98;11.95;;;538.20;2406.40;;;;;;5073430;28;20083;-83
2021/07/26 01:55:13;;;;;;;14.95;11.88;;;538.20;2406.40;;;;;;5073529;28;20039;-84
2021/07/26 01:57:39;;;;;;;19.10;12.18;;;538.20;2406.40;;;;;;5073403;28;20063;-86
2021/07/26 02:00:06;;;;;;;18.27;14.27;;;538.10;2406.40;;;;;;5073213;28;20124;-85
2021/07/26 02:02:32;;;;;;;18.70;13.45;;;538.00;2406.40;;;;;;5073113;28;20056;-84
2021/07/26 02:05:00;;;;;;;20.45;13.95;;;537.80;2406.40;;;;;;5072673;28;20536;-86
2021/07/26 02:07:27;;;;;;;18.35;13.30;;;537.80;2406.40;;;;;;5073358;28;20451;-86
2021/07/26 02:09:53;;;;;;;21.48;14.98;;;537.90;2406.40;;;;;;5107236;28;20024;-86
2021/07/26 02:12:19;;;;;;;16.55;12.95;;;537.90;2406.40;;;;;;5073218;28;20021;-86
2021/07/26 02:14:45;;;;;;;16.42;11.38;;;538.00;2406.40;;;;;;5073131;28;20024;-85
2021/07/26 02:17:11;;;;;;;17.70;12.23;;;537.90;2406.40;;;;;;5073111;28;20051;-85
2021/07/26 02:19:36;;;;;;;16.80;12.77;;;538.00;2406.40;;;;;;5072960;28;20024;-86
2021/07/26 02:22:03;;;;;;;15.30;11.77;;;537.90;2406.40;;;;;;5072907;28;20029;-84
2021/07/26 02:24:29;;;;;;;17.30;12.10;;;537.80;2406.40;;;;;;5073113;28;20024;-85
2021/07/26 02:26:54;;;;;;;17.50;12.43;;;537.70;2406.40;;;;;;5072704;28;20025;-81
2021/07/26 02:29:20;;;;;;;14.48;11.20;;;537.70;2406.40;;;;;;5071467;28;20492;-80
2021/07/26 02:31:46;;;;;;;18.75;12.35;;;512.90;2380.80;;;;;;5072866;28;20159;-82
2021/07/26 02:34:12;;;;;;;16.52;12.48;;;537.60;2406.40;;;;;;5071167;28;20094;-80
2021/07/26 02:36:38;;;;;;;16.45;12.27;;;537.60;2406.40;;;;;;5071977;28;20059;-80
2021/07/26 02:39:05;;;;;;;19.10;12.48;;;537.60;2406.40;;;;;;5072249;28;20029;-80
2021/07/26 02:41:31;;;;;;;15.02;12.38;;;537.60;2406.40;;;;;;5073566;28;20024;-80
2021/07/26 02:43:56;;;;;;;15.38;11.95;;;537.60;2406.40;;;;;;5071971;28;20384;-82
2021/07/26 02:46:23;;;;;;;17.85;12.05;;;537.60;2406.40;;;;;;5072731;28;20444;-80
2021/07/26 02:48:49;;;;;;;16.92;12.48;;;537.70;2406.40;;;;;;5071471;28;20381;-80
2021/07/26 02:51:14;;;;;;;17.55;11.80;;;537.90;2406.40;;;;;;5071588;28;20032;-82
2021/07/26 02:53:43;;;;;;;19.10;13.02;;;538.00;2406.40;;;;;;5073149;28;20021;-80
2021/07/26 02:56:09;;;;;;;21.33;13.95;;;537.90;2406.40;;;;;;5071983;28;20028;-81
2021/07/26 02:58:36;;;;;;;27.08;18.33;;;538.00;2406.40;;;;;;5074900;28;20481;-82
2021/07/26 03:01:02;;;;;;;22.88;17.17;;;537.80;2406.40;;;;;;5075082;28;20462;-82
2021/07/26 03:03:28;;;;;;;23.77;17.25;;;537.60;2406.40;;;;;;5076177;28;20110;-80
2021/07/26 03:05:54;;;;;;;19.20;14.20;;;512.90;2380.80;;;;;;5075345;28;20040;-80
2021/07/26 03:08:19;;;;;;;20.20;14.60;;;512.80;2380.80;;;;;;5075673;28;20067;-81
2021/07/26 03:10:45;;;;;;;18.65;13.10;;;512.90;2380.80;;;;;;5075269;28;20029;-83
2021/07/26 03:13:11;;;;;;;16.02;12.52;;;512.80;2380.80;;;;;;5076658;28;20024;-81
2021/07/26 03:15:37;;;;;;;12.55;11.13;;;512.90;2380.80;;;;;;5074798;28;20028;-81
2021/07/26 03:18:03;;;;;;;15.18;12.00;;;512.70;2380.80;;;;;;5074961;28;20033;-82
2021/07/26 03:20:29;;;;;;;18.80;12.77;;;512.70;2380.80;;;;;;5075515;28;20028;-80
2021/07/26 03:22:59;;;;;;;18.85;12.90;;;512.80;2380.80;;;;;;5075508;28;20036;-81
2021/07/26 03:25:30;;;;;;;15.15;12.20;;;512.80;2380.80;;;;;;5076529;28;20033;-82
2021/07/26 03:27:56;;;;;;;17.50;12.70;;;512.80;2380.80;;;;;;5076880;28;20033;-79
2021/07/26 03:30:23;;;;;;;19.23;13.23;;;512.80;2380.80;;;;;;5075030;28;20048;-80
2021/07/26 03:32:49;;;;;;;16.15;12.43;;;512.30;2380.80;;;;;;5076307;28;20044;-82
2021/07/26 03:35:16;;;;;;;20.73;13.60;;;512.50;2380.80;;;;;;5075132;28;20032;-79
2021/07/26 03:37:41;;;;;;;18.63;13.25;;;512.50;2380.80;;;;;;5076283;28;20381;-77
2021/07/26 03:40:08;;;;;;;18.85;13.80;;;512.60;2380.80;;;;;;5075036;28;20032;-81
2021/07/26 03:42:38;;;;;;;17.05;13.52;;;512.50;2380.80;;;;;;5075087;28;20078;-82
2021/07/26 03:45:06;;;;;;;19.55;12.95;;;512.50;2380.80;;;;;;5074699;28;20044;-81
2021/07/26 03:47:32;;;;;;;17.00;12.18;;;512.20;2380.80;;;;;;5074980;28;20059;-82
2021/07/26 03:49:58;;;;;;;16.23;12.80;;;512.40;2380.80;;;;;;5075072;28;20052;-80
2021/07/26 03:52:23;;;;;;;15.90;13.52;;;512.20;2380.80;;;;;;5074781;28;20552;-82
2021/07/26 03:54:49;;;;;;;16.88;13.07;;;512.00;2380.80;;;;;;5074866;28;20070;-80
2021/07/26 03:57:15;;;;;;;18.27;13.45;;;512.10;2380.80;;;;;;5074757;28;20378;-82
2021/07/26 03:59:41;;;;;;;15.95;12.80;;;512.20;2380.80;;;;;;5074416;28;20111;-81
2021/07/26 04:02:07;;;;;;;21.25;12.90;;;512.30;2380.80;;;;;;5074752;28;20029;-79
2021/07/26 04:04:33;;;;;;;18.77;13.88;;;512.40;2380.80;;;;;;5074241;28;20401;-81
2021/07/26 04:07:02;;;;;;;22.48;13.50;;;512.50;2380.80;;;;;;5074162;28;20369;-79
2021/07/26 04:09:34;;;;;;;23.05;15.73;;;512.10;2380.80;;;;;;5075661;28;20024;-82
2021/07/26 04:12:05;;;;;;;24.30;12.57;;;512.00;2380.80;;;;;;5108184;28;20052;-80
2021/07/26 04:14:35;;;;;;;21.42;12.68;;;512.30;2380.80;;;;;;5076122;28;20039;-87
2021/07/26 04:17:00;;;;;;;19.70;13.55;;;512.40;2380.80;;;;;;5075126;28;20461;-86
2021/07/26 04:19:26;;;;;;;23.00;12.63;;;512.40;2380.80;;;;;;5108912;28;20028;-86
2021/07/26 04:21:56;;;;;;;17.25;12.85;;;512.60;2380.80;;;;;;5074938;28;20123;-87
2021/07/26 04:24:22;;;;;;;20.02;14.63;;;512.70;2380.80;;;;;;5075258;28;20124;-87
2021/07/26 04:26:48;;;;;;;18.33;13.40;;;512.80;2380.80;;;;;;5074807;28;20115;-88
2021/07/26 04:29:15;;;;;;;25.80;17.83;;;512.70;2380.80;;;;;;5074903;28;20091;-87
2021/07/26 04:31:41;;;;;;;26.00;17.98;;;512.50;2380.80;;;;;;5074628;28;20119;-86
2021/07/26 04:34:07;;;;;;;22.98;15.02;;;512.60;2380.80;;;;;;5074709;28;20028;-87
2021/07/26 04:36:33;;;;;;;21.42;14.30;;;512.70;2380.80;;;;;;5108532;28;20059;-85
2021/07/26 04:38:58;;;;;;;26.10;14.95;;;512.80;2380.80;;;;;;5074501;28;20037;-87
2021/07/26 04:41:24;;;;;;;21.45;13.73;;;512.60;2380.80;;;;;;5074540;28;20028;-87
2021/07/26 04:43:50;;;;;;;22.27;14.60;;;512.60;2380.80;;;;;;5074465;28;20032;-86
2021/07/26 04:46:16;;;;;;;18.13;14.23;;;512.30;2380.80;;;;;;5074391;28;20028;-86
2021/07/26 04:48:42;;;;;;;20.83;13.38;;;512.30;2380.80;;;;;;5074408;28;20112;-85
2021/07/26 04:51:07;;;;;;;21.00;13.38;;;512.40;2380.80;;;;;;5074410;28;20031;-86
2021/07/26 04:53:34;;;;;;;23.52;14.10;;;512.40;2380.80;;;;;;5074311;28;20059;-86
2021/07/26 04:56:00;;;;;;;22.35;14.25;;;512.00;2380.80;;;;;;5074064;28;20032;-86
2021/07/26 04:58:26;;;;;;;17.77;13.85;;;512.40;2380.80;;;;;;5074586;28;20024;-86
2021/07/26 05:00:51;;;;;;;19.70;14.40;;;512.60;2380.80;;;;;;5074235;28;20029;-85
2021/07/26 05:03:17;;;;;;;19.58;14.18;;;512.70;2380.80;;;;;;5073971;28;20381;-87
2021/07/26 05:05:43;;;;;;;20.58;14.93;;;512.90;2380.80;;;;;;5074568;28;20079;-86
2021/07/26 05:08:09;;;;;;;19.05;14.32;;;537.70;2406.40;;;;;;5074209;28;20074;-85
2021/07/26 05:10:35;;;;;;;22.55;14.20;;;537.70;2406.40;;;;;;5074683;28;20078;-86
2021/07/26 05:13:00;;;;;;;18.15;14.00;;;537.80;2406.40;;;;;;5074192;28;20028;-85
2021/07/26 05:15:26;;;;;;;24.38;15.43;;;537.80;2406.40;;;;;;5074185;28;20454;-87
2021/07/26 05:17:52;;;;;;;25.23;16.33;;;537.80;2406.40;;;;;;5073782;28;20115;-86
2021/07/26 05:20:18;;;;;;;23.52;15.57;;;537.60;2406.40;;;;;;5073131;28;20067;-85
2021/07/26 05:22:44;;;;;;;24.13;14.40;;;537.60;2406.40;;;;;;5073774;28;20031;-87
2021/07/26 05:25:10;;;;;;;21.95;14.25;;;537.80;2406.40;;;;;;5073589;28;20039;-86
2021/07/26 05:27:37;;;;;;;22.45;15.43;;;537.80;2406.40;;;;;;5107791;28;20025;-85
2021/07/26 05:30:08;;;;;;;22.55;18.85;;;537.90;2406.40;;;;;;5073788;28;20024;-87
2021/07/26 05:32:34;;;;;;;26.52;17.23;;;537.90;2406.40;;;;;;5073920;28;20052;-85
2021/07/26 05:34:59;;;;;;;21.08;16.17;;;538.00;2406.40;;;;;;5073230;28;20052;-85
2021/07/26 05:37:25;;;;;;;21.42;15.25;;;538.00;2406.40;;;;;;5073651;28;20035;-87
2021/07/26 05:39:51;;;;;;;27.15;15.07;;;538.10;2406.40;;;;;;5073572;28;20071;-86
2021/07/26 05:42:18;;;;;;;21.42;15.18;;;538.30;2406.40;;;;;;5073651;28;20438;-86
2021/07/26 05:44:44;;;;;;;19.02;15.15;;;538.40;2406.40;;;;;;5073462;28;20055;-85
2021/07/26 05:47:12;;;;;;;17.90;13.60;;;538.50;2406.40;;;;;;5073498;28;20040;-84
2021/07/26 05:49:38;;;;;;;19.23;13.98;;;563.20;2432.00;;;;;;5073437;28;20064;-84
2021/07/26 05:52:04;;;;;;;21.58;14.18;;;563.30;2432.00;;;;;;5073332;28;20060;-84
2021/07/26 05:54:29;;;;;;;21.17;12.88;;;563.30;2432.00;;;;;;5073306;28;20025;-85
2021/07/26 05:56:56;;;;;;;22.00;15.57;;;563.50;2432.00;;;;;;5073450;28;20036;-86
2021/07/26 05:59:21;;;;;;;21.80;14.98;;;563.60;2432.00;;;;;;5073342;28;20377;-86
2021/07/26 06:01:48;;;;;;;25.25;14.45;;;563.70;2432.00;;;;;;5078759;28;20024;-84
2021/07/26 06:04:14;;;;;;;15.95;12.75;;;563.60;2432.00;;;;;;5092480;28;20052;-84
2021/07/26 06:06:42;;;;;;;16.73;12.60;;;563.70;2432.00;;;;;;5093223;28;20361;-83
2021/07/26 06:09:09;;;;;;;19.05;13.07;;;563.90;2432.00;;;;;;5092644;28;20028;-86
2021/07/26 06:11:39;;;;;;;14.18;10.43;;;564.00;2432.00;;;;;;5092962;28;20028;-84
2021/07/26 06:14:05;;;;;;;14.82;10.60;;;564.10;2432.00;;;;;;5092991;28;20032;-86
2021/07/26 06:16:31;;;;;;;14.18;11.20;;;588.90;2432.00;;;;;;5093115;28;20455;-83
2021/07/26 06:19:01;;;;;;;22.20;11.30;;;588.90;2432.00;;;;;;5126733;28;20116;-81
2021/07/26 06:21:27;;;;;;;15.45;10.40;;;589.30;2432.00;;;;;;5092918;28;20028;-83
2021/07/26 06:23:53;;;;;;;17.38;11.52;;;589.20;2432.00;;;;;;5092987;28;20102;-84
2021/07/26 06:26:19;;;;;;;15.50;11.55;;;589.20;2432.00;;;;;;5126961;28;20024;-83
2021/07/26 06:28:45;;;;;;;16.60;11.90;;;589.30;2432.00;;;;;;5127347;28;20035;-82
2021/07/26 06:31:11;;;;;;;16.98;11.77;;;589.40;2432.00;;;;;;5094973;28;20016;-84
2021/07/26 06:33:37;;;;;;;17.25;12.05;;;589.50;2432.00;;;;;;5130877;27;20024;-82
2021/07/26 06:36:04;;;;;;;13.05;10.70;;;589.60;2432.00;;;;;;5096583;28;20536;-83
2021/07/26 06:38:30;;;;;;;14.40;11.25;;;589.70;2432.00;;;;;;5097466;28;20047;-85
2021/07/26 06:40:56;;;;;;;17.55;11.40;;;589.70;2432.00;;;;;;5076153;28;20021;-82
2021/07/26 06:43:22;;;;;;;15.60;11.23;;;614.40;2432.00;;;;;;5076707;28;20433;-85
2021/07/26 06:45:48;;;;;;;18.88;12.35;;;614.60;2432.00;;;;;;5110475;28;20025;-84
2021/07/26 06:48:14;;;;;;;16.48;11.55;;;614.80;2432.00;;;;;;5110124;28;20025;-83
2021/07/26 06:50:40;;;;;;;18.92;12.95;;;614.90;2432.00;;;;;;5077603;28;20032;-82
2021/07/26 06:53:07;;;;;;;16.95;11.70;;;615.00;2432.00;;;;;;5077765;28;20029;-83
2021/07/26 06:55:37;;;;;;;18.50;10.63;;;615.20;2432.00;;;;;;5110224;28;20181;-84
2021/07/26 06:58:04;;;;;;;16.98;10.35;;;640.00;2432.00;;;;;;5076388;28;20469;-83
2021/07/26 07:00:30;;;;;;;12.57;10.30;;;615.30;2432.00;;;;;;5075921;28;20115;-85
2021/07/26 07:02:56;;;;;;;14.63;11.52;;;615.30;2432.00;;;;;;5076270;28;20166;-84
2021/07/26 07:05:22;;;;;;;13.40;9.07;;;640.00;2432.00;;;;;;5075982;28;20060;-85
2021/07/26 07:07:48;;;;;;;11.75;9.25;;;640.20;2432.00;;;;;;5110098;28;20021;-82
2021/07/26 07:10:13;;;;;;;12.93;9.90;;;640.40;2432.00;;;;;;5110331;28;20032;-85
2021/07/26 07:12:39;;;;;;;13.48;9.15;;;640.60;2432.00;;;;;;5110137;28;20052;-82
2021/07/26 07:15:06;;;;;;;15.73;9.65;;;640.60;2432.00;;;;;;5109683;28;20476;-85
2021/07/26 07:17:32;;;;;;;14.40;8.93;;;640.80;2432.00;;;;;;5076596;28;20025;-86
2021/07/26 07:19:58;;;;;;;13.60;9.35;;;640.90;2432.00;;;;;;5093672;28;20097;-86
2021/07/26 07:22:24;;;;;;;13.13;10.43;;;665.70;2432.00;;;;;;5130692;27;20078;-86
2021/07/26 07:24:50;;;;;;;15.65;13.85;;;665.60;2432.00;;;;;;5119227;27;20029;-84
2021/07/26 07:27:16;;;;;;;17.73;13.10;;;665.70;2432.00;;;;;;5097618;28;20479;-84
2021/07/26 07:29:42;;;;;;;12.57;9.27;;;666.00;2432.00;;;;;;5095862;28;20021;-81
2021/07/26 07:32:12;;;;;;;12.55;10.23;;;666.30;2432.00;;;;;;5096132;28;20031;-85
2021/07/26 07:34:39;;;;;;;11.63;9.27;;;666.30;2432.00;;;;;;5096063;28;20032;-84
2021/07/26 07:37:07;;;;;;;12.45;9.27;;;666.30;2432.00;;;;;;5095951;28;20373;-86
2021/07/26 07:39:33;;;;;;;16.15;9.40;;;666.50;2432.00;;;;;;5096184;28;20457;-87
2021/07/26 07:41:58;;;;;;;12.15;8.20;;;691.30;2432.00;;;;;;5096387;28;20023;-84
2021/07/26 07:44:29;;;;;;;12.00;9.70;;;691.30;2432.00;;;;;;5096363;28;20032;-85
2021/07/26 07:46:55;;;;;;;11.30;9.15;;;691.40;2432.00;;;;;;5097071;28;20024;-85
2021/07/26 07:49:21;;;;;;;8.80;7.65;;;691.60;2432.00;;;;;;5096868;28;20050;-85
2021/07/26 07:51:48;;;;;;;9.65;8.02;;;691.60;2432.00;;;;;;5097210;28;20028;-84
2021/07/26 07:54:14;;;;;;;20.05;7.78;;;691.50;2432.00;;;;;;5095927;28;20031;-85
2021/07/26 07:56:42;;;;;;;10.63;8.30;;;691.50;2432.00;;;;;;5096290;28;20028;-86
2021/07/26 07:59:10;;;;;;;9.73;7.25;;;691.70;2432.00;;;;;;5117087;27;20025;-83
2021/07/26 08:01:36;;;;;;;11.18;8.43;;;691.60;2432.00;;;;;;5096168;28;20077;-85
2021/07/26 08:04:02;;;;;;;10.35;7.53;;;691.80;2432.00;;;;;;5097470;28;20044;-82
2021/07/26 08:06:28;;;;;;;8.70;7.35;;;692.00;2432.00;;;;;;5094836;28;20040;-82
2021/07/26 08:08:54;;;;;;;15.18;8.35;;;692.10;2432.00;;;;;;5094957;28;20028;-81
2021/07/26 08:11:19;;;;;;;11.57;8.90;;;692.10;2432.00;;;;;;5094152;28;20028;-79
2021/07/26 08:13:45;;;;;;;13.68;10.45;;;717.10;2432.00;;;;;;5128293;27;20128;-78
2021/07/26 08:16:11;;;;;;;12.57;9.15;;;717.40;2432.00;;;;;;5094062;28;20105;-78
2021/07/26 08:18:37;;;;;;;10.25;8.02;;;717.50;2432.00;;;;;;5093897;28;20073;-78
2021/07/26 08:21:03;;;;;;;12.95;8.27;;;717.30;2432.00;;;;;;5093601;28;20429;-76
2021/07/26 08:23:28;;;;;;;14.02;9.27;;;717.50;2432.00;;;;;;5093936;28;20043;-78
2021/07/26 08:25:54;;;;;;;12.90;8.57;;;717.50;2432.00;;;;;;5124790;27;20115;-78
2021/07/26 08:28:20;;;;;;;12.77;9.10;;;742.40;2432.00;;;;;;5111403;27;20043;-79
2021/07/26 08:30:46;;;;;;;12.00;9.75;;;742.60;2432.00;;;;;;5092187;28;20024;-80
2021/07/26 08:33:12;;;;;;;11.38;9.20;;;742.60;2432.00;;;;;;5119347;27;20389;-79
2021/07/26 08:35:38;;;;;;;12.50;9.68;;;742.60;2432.00;;;;;;5094721;28;20465;-78
2021/07/26 08:38:05;;;;;;;11.70;9.77;;;742.60;2432.00;;;;;;5094647;28;20107;-76
2021/07/26 08:40:32;;;;;;;12.68;9.82;;;742.40;2432.00;;;;;;5093792;28;20085;-79
2021/07/26 08:43:07;;;;;;;11.13;9.10;;;742.50;2432.00;;;;;;5093711;28;20077;-78
2021/07/26 08:45:34;;;;;;;14.23;11.05;;;717.50;2432.00;;;;;;5091238;28;20028;-80
2021/07/26 08:48:06;;;;;;;13.63;9.18;;;717.70;2432.00;;;;;;5093800;28;20024;-78
2021/07/26 08:50:33;;;;;;;;;;;742.40;2432.00;;;;;;5093195;28;20034;-78
2021/07/26 08:53:02;;;;;;;14.48;10.23;;;742.60;2432.00;;;;;;5094724;28;19926;-78
2021/07/26 08:55:29;;;;;;;10.75;8.05;;;743.00;2432.00;;;;;;5092404;28;20546;-78
2021/07/26 08:57:56;;;;;;;14.75;10.02;;;743.20;2432.00;;;;;;5093575;28;20025;-80
2021/07/26 09:00:23;;;;;;;14.30;9.18;;;768.10;2432.00;;;;;;5093263;28;20024;-77
2021/07/26 09:02:50;;;;;;;13.95;10.18;;;768.30;2432.00;;;;;;5093511;28;20032;-78
2021/07/26 09:05:16;;;;;;;13.10;9.02;;;768.70;2432.00;;;;;;5093463;28;20396;-80
2021/07/26 09:07:43;;;;;;;9.60;7.13;;;768.80;2406.40;;;;;;5092976;28;20024;-79
2021/07/26 09:10:18;;;;;;;10.80;8.35;;;768.90;2380.80;;;;;;5094718;28;20077;-80
2021/07/26 09:12:46;;;;;;;11.18;8.65;;;768.90;2355.20;;;;;;5094327;28;20028;-80
2021/07/26 09:15:23;;;;;;;11.32;8.10;;;793.60;2355.20;;;;;;5092642;28;20404;-79
2021/07/26 09:17:49;;;;;;;12.65;9.32;;;793.80;2355.20;;;;;;5092979;28;20028;-80
2021/07/26 09:20:16;;;;;;;13.23;8.63;;;793.80;2329.60;;;;;;5092996;28;20031;-78
2021/07/26 09:22:43;;;;;;;13.77;10.30;;;793.80;2304.00;;;;;;5092785;28;20428;-80
2021/07/26 09:25:20;;;;;;;15.48;10.45;;;794.10;2304.00;;;;;;5093007;28;20024;-77
2021/07/26 09:28:09;;;;;;;16.63;10.38;;;794.20;2278.40;;;;;;5093929;28;20125;-79
2021/07/26 09:30:49;;;;;;;17.92;14.10;;;794.50;2252.80;;;;;;5093191;28;20028;-82
2021/07/26 09:33:22;;;;;;;12.63;9.88;;;819.30;2227.20;;;;;;5092464;28;20038;-80
2021/07/26 09:36:08;;;;;;;10.50;9.30;;;819.40;2227.20;;;;;;5089650;28;20115;-79
2021/07/26 09:38:37;;;;;;;13.45;9.73;;;819.70;2227.20;;;;;;5091155;28;20119;-80
2021/07/26 09:41:05;;;;;;;12.43;7.75;;;819.80;2201.60;;;;;;5093806;28;20031;-78
2021/07/26 09:43:31;;;;;;;11.73;8.02;;;819.80;2150.40;;;;;;5092902;28;20104;-79
2021/07/26 09:45:59;;;;;;;10.77;7.32;;;820.00;2150.40;;;;;;5094219;28;20130;-80
2021/07/26 09:48:27;;;;;;;8.02;7.20;;;819.80;2124.80;;;;;;5092489;28;20051;-79
2021/07/26 09:50:54;;;;;;;12.10;8.43;;;820.10;2099.20;;;;;;5072473;28;20031;-83
2021/07/26 09:53:22;;;;;;;12.57;8.52;;;844.90;2124.80;;;;;;5073283;28;20020;-84
2021/07/26 09:55:50;;;;;;;12.70;7.97;;;845.10;2099.20;;;;;;5073087;28;20033;-84
2021/07/26 09:58:18;;;;;;;8.88;7.70;;;844.80;2150.40;;;;;;5072634;28;20477;-79
2021/07/26 10:00:45;;;;;;;11.38;8.32;;;845.00;2099.20;;;;;;5072484;28;20032;-79
2021/07/26 10:03:15;;;;;;;15.18;9.32;;;845.10;2099.20;;;;;;5071907;28;20028;-81
2021/07/26 10:05:43;;;;;;;14.38;12.45;;;845.30;2073.60;;;;;;5072285;28;20381;-80
2021/07/26 10:08:10;;;;;;;12.18;10.88;;;845.70;2073.60;;;;;;5072361;28;20028;-80
2021/07/26 10:10:38;;;;;;;13.45;9.98;;;870.50;2022.40;;;;;;5072938;28;20029;-84
2021/07/26 10:13:04;;;;;;;11.80;7.97;;;845.70;2048.00;;;;;;5072989;28;20024;-83
2021/07/26 10:15:32;;;;;;;9.73;7.53;;;845.70;2048.00;;;;;;5073138;28;20077;-83
2021/07/26 10:17:58;;;;;;;12.85;7.53;;;845.70;2022.40;;;;;;5072918;28;20123;-84
2021/07/26 10:20:34;;;;;;;8.60;7.03;;;845.50;2048.00;;;;;;5073167;28;20024;-83
2021/07/26 10:23:03;;;;;;;9.70;6.80;;;845.30;2048.00;;;;;;5072687;28;20484;-84
2021/07/26 10:25:40;;;;;;;8.68;6.88;;;845.50;2048.00;;;;;;5072574;28;20043;-85
2021/07/26 10:28:22;;;;;;;13.70;6.57;;;845.40;2073.60;;;;;;5072386;28;20031;-80
2021/07/26 10:30:48;;;;;;;12.25;10.52;;;845.00;2073.60;;;;;;5071841;28;20458;-78
2021/07/26 10:33:14;;;;;;;13.70;10.52;;;844.90;2099.20;;;;;;5072402;28;20028;-82
2021/07/26 10:35:48;;;;;;;13.25;9.40;;;820.10;2099.20;;;;;;5072677;28;20029;-81
2021/07/26 10:38:13;;;;;;;13.88;10.55;;;819.90;2099.20;;;;;;5072854;28;20024;-80
2021/07/26 10:40:41;;;;;;;10.38;8.98;;;819.70;2099.20;;;;;;5072512;28;20031;-79
2021/07/26 10:43:13;;;;;;;14.85;11.75;;;819.60;2099.20;;;;;;5073441;28;20540;-78
2021/07/26 10:45:54;;;;;;;12.15;9.57;;;819.60;2124.80;;;;;;5072037;28;20397;-77
2021/07/26 10:48:24;;;;;;;16.33;11.30;;;819.50;2176.00;;;;;;5071681;28;20040;-78
2021/07/26 10:50:54;;;;;;;16.45;10.50;;;819.40;2201.60;;;;;;5071940;28;20031;-80
2021/07/26 10:53:35;;;;;;;19.08;12.15;;;819.30;2150.40;;;;;;5072029;28;20078;-78
2021/07/26 10:56:06;;;;;;;11.67;7.73;;;819.30;2176.00;;;;;;5073168;28;20040;-81
2021/07/26 10:58:38;;;;;;;10.05;7.90;;;819.30;2124.80;;;;;;5074231;28;20305;-79
2021/07/26 11:01:22;;;;;;;9.15;8.10;;;820.00;2150.40;;;;;;5087981;28;20019;-80
2021/07/26 11:03:51;;;;;;;17.35;11.07;;;845.20;2150.40;;;;;;5103012;28;20056;-79
2021/07/26 11:06:39;;;;;;;10.73;8.38;;;845.40;2099.20;;;;;;5104864;28;20031;-80
2021/07/26 11:09:40;;;;;;;18.40;12.27;;;845.70;2073.60;;;;;;5091467;28;20031;-81
2021/07/26 11:12:07;;;;;;;13.50;9.98;;;870.70;2048.00;;;;;;5093266;28;20023;-78
2021/07/26 11:14:33;;;;;;;12.68;10.00;;;870.90;1971.20;;;;;;5092023;28;20857;-80
2021/07/26 11:17:02;;;;;;;10.32;8.38;;;871.20;1971.20;;;;;;5091954;28;20385;-79
2021/07/26 11:19:35;;;;;;;9.82;7.97;;;896.00;1945.60;;;;;;5095250;28;20457;-79
2021/07/26 11:22:05;;;;;;;10.77;7.45;;;896.10;1971.20;;;;;;5097023;28;20118;-81
2021/07/26 11:24:44;;;;;;;12.57;7.47;;;871.30;1971.20;;;;;;5100233;28;20035;-81
2021/07/26 11:27:13;;;;;;;9.13;7.88;;;871.20;1945.60;;;;;;5099100;28;20027;-83
2021/07/26 11:29:42;;;;;;;10.63;6.57;;;896.00;1920.00;;;;;;5094072;28;20063;-83
2021/07/26 11:32:08;;;;;;;11.18;6.90;;;896.30;1920.00;;;;;;5093726;28;20416;-82
2021/07/26 11:34:34;;;;;;;8.98;7.85;;;896.30;1868.80;;;;;;5094683;28;20085;-83
2021/07/26 11:37:05;;;;;;;9.40;6.90;;;896.60;1920.00;;;;;;5093817;28;20028;-81
2021/07/26 11:39:51;;;;;;;11.07;7.55;;;896.90;1843.20;;;;;;5095461;28;20024;-81
2021/07/26 11:42:23;;;;;;;9.05;7.90;;;896.50;1843.20;;;;;;5095143;28;20028;-81
2021/07/26 11:44:51;;;;;;;7.95;6.80;;;896.50;1920.00;;;;;;5096573;28;20081;-82
2021/07/26 11:47:18;;;;;;;8.40;7.38;;;896.90;1843.20;;;;;;5094863;28;20024;-81
2021/07/26 11:49:50;;;;;;;10.77;7.35;;;896.90;1868.80;;;;;;5095316;28;20020;-81
2021/07/26 11:52:18;;;;;;;9.98;6.78;;;921.70;1843.20;;;;;;5096500;28;20418;-82
2021/07/26 11:54:44;;;;;;;12.55;6.88;;;921.70;1843.20;;;;;;5094880;28;20028;-82
2021/07/26 11:57:11;;;;;;;9.05;6.70;;;922.00;1868.80;;;;;;5095178;28;20039;-81
2021/07/26 11:59:40;;;;;;;7.72;6.65;;;922.00;1843.20;;;;;;5095012;28;20028;-82
2021/07/26 12:02:10;;;;;;;10.15;7.15;;;922.00;1843.20;;;;;;5094769;28;20027;-82
2021/07/26 12:04:36;;;;;;;9.60;7.15;;;922.00;1843.20;;;;;;5094787;28;20052;-81
2021/07/26 12:07:04;;;;;;;10.57;7.03;;;922.10;1843.20;;;;;;5096169;28;20028;-81
2021/07/26 12:09:31;;;;;;;8.82;6.45;;;922.20;1817.60;;;;;;5094643;28;20032;-82